Flight Track Log - Related Links

Times and Time Zones

All times are in EDT time to prevent confusion due to time zone crossing. See the EGF2901 flight status page for this flight to view local times or setup timezone preferences in your user account.

Time Position Orientation Groundspeed Altitude Reporting Facility
EDT Latitude Longitude Course Direction KTS MPH feet Rate Location/Type
Sun 10:08:23 PM 41.9667 -87.9333 77° East 163 188 1,700  Level Chicago TRACON
Sun 10:09:23 PM 42.0000 -87.9833 312° West 231 266 3,800 2,500 Climbing Chicago TRACON
Sun 10:10:00 PM 42.0401 -87.4362 79° East  Level FlightAware Approximate
Sun 10:10:23 PM 42.0667 -87.9167 37° Northeast 302 348 6,700  Level Chicago TRACON
Sun 10:11:00 PM 42.0633 -87.2803 78° East  Level FlightAware Approximate
Sun 10:11:17 PM 42.0833 -87.8333 75° East 306 352 9,900  Level Chicago TRACON
Sun 10:12:00 PM 42.0895 -87.1254 71° East  Level FlightAware Approximate
Sun 10:13:00 PM 42.1105 -86.9701 77° East  Level FlightAware Approximate
Sun 10:13:14 PM 42.0892 -87.6150 88° East 302 348 14,900  Level Chicago Center
Sun 10:14:16 PM 42.0950 -87.4789 87° East 345 397 16,900 1,707 Climbing Chicago Center
Sun 10:15:17 PM 42.1017 -87.3344 86° East 375 432 18,400 1,574 Climbing Chicago Center
Sun 10:16:18 PM 42.1083 -87.1794 87° East 403 464 20,100 1,770 Climbing Chicago Center
Sun 10:17:19 PM 42.1139 -87.0158 87° East 429 494 22,000 1,854 Climbing Chicago Center
Sun 10:18:21 PM 42.1203 -86.8506 87° East 437 503 23,900 1,854 Climbing Chicago Center
Sun 10:19:22 PM 42.1269 -86.6661 87° East 442 509 25,800 1,574 Climbing Chicago Center
Sun 10:20:23 PM 42.1336 -86.4958 87° East 450 518 27,100 1,230 Climbing Chicago Center
Sun 10:21:24 PM 42.1381 -86.3206 88° East 461 531 28,300 1,180 Climbing Chicago Center
Sun 10:22:25 PM 42.1436 -86.1425 88° East 469 540 29,500 1,073 Climbing Chicago Center
Sun 10:23:27 PM 42.1428 -85.9375 90° East 484 557 30,500 927 Climbing Chicago Center
Sun 10:24:28 PM 42.1411 -85.7500 91° East 497 572 31,400 885 Climbing Chicago Center
Sun 10:25:29 PM 42.1394 -85.5608 91° East 505 581 32,300 787 Climbing Chicago Center
Sun 10:26:30 PM 42.1375 -85.3697 91° East 511 588 33,000 344 Climbing Chicago Center
Sun 10:27:31 PM 42.1367 -85.1739 90° East 526 605 33,000  Level Chicago Center
Sun 10:28:32 PM 42.1336 -84.9758 91° East 528 608 33,000  Level Chicago Center
Sun 10:29:34 PM 42.1300 -84.7775 91° East 529 609 33,000  Level Chicago Center
Sun 10:30:35 PM 42.1269 -84.5800 91° East 529 609 33,000  Level Chicago Center
Sun 10:31:36 PM 42.1339 -84.3853 87° East 521 600 33,000  Level Chicago Center
Sun 10:32:37 PM 42.1592 -84.1578 81° East 514 592 33,000  Level Chicago Center
Sun 10:33:38 PM 42.1819 -83.9653 81° East 517 595 33,000  Level Chicago Center
Sun 10:34:39 PM 42.2019 -83.7761 82° East 517 595 33,000  Level Chicago Center
Sun 10:35:42 PM 42.2186 -83.6011 83° East 512 589 33,000  Level Cleveland Center
Sun 10:36:44 PM 42.2283 -83.3964 86° East 512 589 33,000  Level Cleveland Center
Sun 10:37:45 PM 42.2256 -83.1911 91° East 515 593 33,000  Level Cleveland Center
Sun 10:38:47 PM 42.2228 -82.9978 91° East 517 595 33,000 -98 Level Cleveland Center
Sun 10:39:48 PM 42.2192 -82.8044 91° East 517 595 32,800 -639 Descending Cleveland Center
Sun 10:40:49 PM 42.2136 -82.6125 92° East 517 595 31,700 -1,268 Descending Cleveland Center
Sun 10:41:51 PM 42.2106 -82.4242 91° East 507 583 30,200 -1,659 Descending Cleveland Center
Sun 10:42:52 PM 42.2064 -82.2058 91° East 488 562 28,300 -1,574 Descending Cleveland Center
Sun 10:43:53 PM 42.2011 -82.0308 92° East 469 540 27,000 -634 Descending Cleveland Center
Sun 10:44:55 PM 42.2119 -81.8511 85° East 480 552 27,000  Level Cleveland Center
Sun 10:45:56 PM 42.2333 -81.6736 81° East 475 547 27,000  Level Cleveland Center
Sun 10:46:57 PM 42.2542 -81.4925 81° East 477 549 27,000  Level Cleveland Center
Sun 10:47:59 PM 42.2750 -81.3147 81° East 477 549 27,000  Level Cleveland Center
Sun 10:49:00 PM 42.2953 -81.1381 81° East 473 544 27,000  Level Cleveland Center
Sun 10:50:01 PM 42.3147 -80.9636 81° East 467 537 27,000 -146 Level Cleveland Center
Sun 10:51:03 PM 42.3333 -80.7886 82° East 467 537 26,700 -1,024 Descending Cleveland Center
Sun 10:52:04 PM 42.3533 -80.6186 81° East 455 524 24,900 -1,869 Descending Cleveland Center
Sun 10:53:05 PM 42.3719 -80.4519 81° East 448 516 22,900 -2,000 Descending Cleveland Center
Sun 10:54:07 PM 42.4156 -80.3106 67° East 405 466 20,800 -1,951 Descending Cleveland Center
Sun 10:55:08 PM 42.4600 -80.1778 66° East 387 445 18,900 -1,721 Descending Cleveland Center
Sun 10:56:09 PM 42.5097 -80.0367 64° Northeast 386 444 17,300 -1,623 Descending Cleveland Center
Sun 10:57:10 PM 42.5542 -79.9014 66° East 390 449 15,600 -1,672 Descending Cleveland Center
Sun 10:58:11 PM 42.5994 -79.7692 65° Northeast 391 450 13,900 -1,561 Descending Cleveland Center
Sun 10:59:13 PM 42.6414 -79.6403 66° East 376 433 12,400 -1,415 Descending Cleveland Center
Sun 11:00:14 PM 42.6811 -79.5214 66° East 348 400 11,000 -1,180 Descending Cleveland Center
Sun 11:01:15 PM 42.7153 -79.4156 66° East 278 320 10,000 -1,508 Descending Cleveland Center
Sun 11:03:17 PM 42.7711 -79.2331 67° East 250 288 6,400 -1,770 Descending Cleveland Center
Sun 11:04:18 PM 42.7983 -79.1467 67° East 243 280 4,600 -1,721 Descending Cleveland Center
Sun 11:05:19 PM 42.8239 -79.0664 67° East 240 276 2,900 -1,122 Descending Cleveland Center
Sun 11:06:21 PM 42.8500 -78.9853 66° East 230 265 2,300 -293 Descending Cleveland Center
Sun 11:07:22 PM 42.8550 -78.9169 84° East 182 209 2,300  Level Cleveland Center
Sun 11:08:23 PM 42.8614 -78.8525 82° East 179 206 2,300 -98 Level Cleveland Center
Sun 11:09:24 PM 42.8800 -78.8075 61° Northeast 136 157 2,100 -458 Descending Cleveland Center
Sun 11:10:34 PM 42.9167 -78.7667 39° Northeast 120 138 1,300 -686 Descending Buffalo TRACON

Login

Don't have an account? Register now (free) for customized features, flight alerts, and more!